sensor_id;sensor_type;location;lat;lon;timestamp;temperature;humidity
1011;DHT22;494;48.744;10.106;2023-05-21T00:02:17;16.90;36.30
1011;DHT22;494;48.744;10.106;2023-05-21T00:04:46;16.80;36.60
1011;DHT22;494;48.744;10.106;2023-05-21T00:07:15;16.70;36.90
1011;DHT22;494;48.744;10.106;2023-05-21T00:09:47;16.70;37.10
1011;DHT22;494;48.744;10.106;2023-05-21T00:12:16;16.70;37.30
1011;DHT22;494;48.744;10.106;2023-05-21T00:14:44;16.60;37.30
1011;DHT22;494;48.744;10.106;2023-05-21T00:17:13;16.70;37.50
1011;DHT22;494;48.744;10.106;2023-05-21T00:19:42;16.70;37.30
1011;DHT22;494;48.744;10.106;2023-05-21T00:22:11;16.70;37.20
1011;DHT22;494;48.744;10.106;2023-05-21T00:24:45;16.70;37.40
1011;DHT22;494;48.744;10.106;2023-05-21T00:27:15;16.70;37.30
1011;DHT22;494;48.744;10.106;2023-05-21T00:29:44;16.70;37.10
1011;DHT22;494;48.744;10.106;2023-05-21T00:32:14;16.50;37.80
1011;DHT22;494;48.744;10.106;2023-05-21T00:34:43;16.30;38.80
1011;DHT22;494;48.744;10.106;2023-05-21T00:37:12;16.30;39.00
1011;DHT22;494;48.744;10.106;2023-05-21T00:39:43;16.30;39.00
1011;DHT22;494;48.744;10.106;2023-05-21T00:42:15;16.30;39.40
1011;DHT22;494;48.744;10.106;2023-05-21T00:44:45;16.30;39.60
1011;DHT22;494;48.744;10.106;2023-05-21T00:47:15;16.30;39.80
1011;DHT22;494;48.744;10.106;2023-05-21T00:49:44;16.20;39.80
1011;DHT22;494;48.744;10.106;2023-05-21T00:52:14;16.20;39.80
1011;DHT22;494;48.744;10.106;2023-05-21T00:54:48;16.20;40.00
1011;DHT22;494;48.744;10.106;2023-05-21T00:57:19;16.10;40.10
1011;DHT22;494;48.744;10.106;2023-05-21T00:59:53;16.10;40.30
1011;DHT22;494;48.744;10.106;2023-05-21T01:02:24;16.20;40.40
1011;DHT22;494;48.744;10.106;2023-05-21T01:04:54;16.10;40.30
1011;DHT22;494;48.744;10.106;2023-05-21T01:07:23;16.00;40.70
1011;DHT22;494;48.744;10.106;2023-05-21T01:09:54;16.00;41.10
1011;DHT22;494;48.744;10.106;2023-05-21T01:12:27;16.00;41.40
1011;DHT22;494;48.744;10.106;2023-05-21T01:14:59;16.00;41.80
1011;DHT22;494;48.744;10.106;2023-05-21T01:17:30;16.10;42.20
1011;DHT22;494;48.744;10.106;2023-05-21T01:20:01;16.10;42.70
1011;DHT22;494;48.744;10.106;2023-05-21T01:22:39;16.10;42.00
1011;DHT22;494;48.744;10.106;2023-05-21T01:25:14;16.10;42.10
1011;DHT22;494;48.744;10.106;2023-05-21T01:27:45;16.20;41.80
1011;DHT22;494;48.744;10.106;2023-05-21T01:30:16;16.20;41.10
1011;DHT22;494;48.744;10.106;2023-05-21T01:32:53;16.30;40.70
1011;DHT22;494;48.744;10.106;2023-05-21T01:35:28;16.30;40.40
1011;DHT22;494;48.744;10.106;2023-05-21T01:38:05;16.30;40.10
1011;DHT22;494;48.744;10.106;2023-05-21T01:40:47;16.40;39.70
1011;DHT22;494;48.744;10.106;2023-05-21T01:43:21;16.50;39.60
1011;DHT22;494;48.744;10.106;2023-05-21T01:45:53;16.40;39.40
1011;DHT22;494;48.744;10.106;2023-05-21T01:48:24;16.50;39.30
1011;DHT22;494;48.744;10.106;2023-05-21T01:50:59;16.50;39.20
1011;DHT22;494;48.744;10.106;2023-05-21T01:53:30;16.40;39.30
1011;DHT22;494;48.744;10.106;2023-05-21T01:56:02;16.40;39.80
1011;DHT22;494;48.744;10.106;2023-05-21T01:58:32;16.40;39.90
1011;DHT22;494;48.744;10.106;2023-05-21T02:01:01;16.40;39.90
1011;DHT22;494;48.744;10.106;2023-05-21T02:03:31;16.40;39.70
1011;DHT22;494;48.744;10.106;2023-05-21T02:06:00;16.40;39.40
1011;DHT22;494;48.744;10.106;2023-05-21T02:08:30;16.40;39.30
1011;DHT22;494;48.744;10.106;2023-05-21T02:11:01;16.30;39.40
1011;DHT22;494;48.744;10.106;2023-05-21T02:13:30;16.30;39.20
1011;DHT22;494;48.744;10.106;2023-05-21T02:15:59;16.30;39.10
1011;DHT22;494;48.744;10.106;2023-05-21T02:18:28;16.30;39.30
1011;DHT22;494;48.744;10.106;2023-05-21T02:20:57;16.30;39.20
1011;DHT22;494;48.744;10.106;2023-05-21T02:23:26;16.30;39.20
1011;DHT22;494;48.744;10.106;2023-05-21T02:25:55;16.30;39.10
1011;DHT22;494;48.744;10.106;2023-05-21T02:28:26;16.30;39.20
1011;DHT22;494;48.744;10.106;2023-05-21T02:30:58;16.30;39.50
1011;DHT22;494;48.744;10.106;2023-05-21T02:33:28;16.20;39.60
1011;DHT22;494;48.744;10.106;2023-05-21T02:35:57;16.10;39.70
1011;DHT22;494;48.744;10.106;2023-05-21T02:38:26;16.10;39.70
1011;DHT22;494;48.744;10.106;2023-05-21T02:40:58;16.10;39.60
1011;DHT22;494;48.744;10.106;2023-05-21T02:43:30;16.00;39.90
1011;DHT22;494;48.744;10.106;2023-05-21T02:45:59;16.00;39.80
1011;DHT22;494;48.744;10.106;2023-05-21T02:48:30;16.00;39.70
1011;DHT22;494;48.744;10.106;2023-05-21T02:51:01;16.10;39.90
1011;DHT22;494;48.744;10.106;2023-05-21T02:53:31;16.10;40.00
1011;DHT22;494;48.744;10.106;2023-05-21T02:56:00;16.00;39.90
1011;DHT22;494;48.744;10.106;2023-05-21T02:58:34;16.10;39.90
1011;DHT22;494;48.744;10.106;2023-05-21T03:01:05;16.10;40.00
1011;DHT22;494;48.744;10.106;2023-05-21T03:03:35;16.10;39.70
1011;DHT22;494;48.744;10.106;2023-05-21T03:06:05;16.10;39.70
1011;DHT22;494;48.744;10.106;2023-05-21T03:08:36;16.10;39.70
1011;DHT22;494;48.744;10.106;2023-05-21T03:11:05;16.10;39.50
1011;DHT22;494;48.744;10.106;2023-05-21T03:13:37;16.10;39.60
1011;DHT22;494;48.744;10.106;2023-05-21T03:16:06;16.00;39.70
1011;DHT22;494;48.744;10.106;2023-05-21T03:18:36;16.00;39.70
1011;DHT22;494;48.744;10.106;2023-05-21T03:21:05;15.90;39.90
1011;DHT22;494;48.744;10.106;2023-05-21T03:23:34;15.90;40.70
1011;DHT22;494;48.744;10.106;2023-05-21T03:26:03;15.90;40.00
1011;DHT22;494;48.744;10.106;2023-05-21T03:28:34;15.80;40.00
1011;DHT22;494;48.744;10.106;2023-05-21T03:31:05;15.90;40.40
1011;DHT22;494;48.744;10.106;2023-05-21T03:33:38;15.80;40.40
1011;DHT22;494;48.744;10.106;2023-05-21T03:36:07;15.80;40.30
1011;DHT22;494;48.744;10.106;2023-05-21T03:38:37;15.80;40.40
1011;DHT22;494;48.744;10.106;2023-05-21T03:41:08;15.90;40.40
1011;DHT22;494;48.744;10.106;2023-05-21T03:43:41;15.80;40.20
1011;DHT22;494;48.744;10.106;2023-05-21T03:46:10;15.90;40.40
1011;DHT22;494;48.744;10.106;2023-05-21T03:48:41;15.80;40.10
1011;DHT22;494;48.744;10.106;2023-05-21T03:51:11;15.90;40.10
1011;DHT22;494;48.744;10.106;2023-05-21T03:53:42;15.80;40.10
1011;DHT22;494;48.744;10.106;2023-05-21T03:56:12;15.80;40.10
1011;DHT22;494;48.744;10.106;2023-05-21T03:58:44;15.80;40.00
1011;DHT22;494;48.744;10.106;2023-05-21T04:01:14;15.90;40.20
1011;DHT22;494;48.744;10.106;2023-05-21T04:03:43;15.80;40.10
1011;DHT22;494;48.744;10.106;2023-05-21T04:06:12;15.70;40.40
1011;DHT22;494;48.744;10.106;2023-05-21T04:08:43;15.70;40.50
1011;DHT22;494;48.744;10.106;2023-05-21T04:11:12;15.70;40.50
1011;DHT22;494;48.744;10.106;2023-05-21T04:13:40;15.70;40.60
1011;DHT22;494;48.744;10.106;2023-05-21T04:16:11;15.80;40.60
1011;DHT22;494;48.744;10.106;2023-05-21T04:18:42;15.80;40.70
1011;DHT22;494;48.744;10.106;2023-05-21T04:21:12;15.80;40.50
1011;DHT22;494;48.744;10.106;2023-05-21T04:23:42;15.80;40.50
1011;DHT22;494;48.744;10.106;2023-05-21T04:26:11;15.90;40.40
1011;DHT22;494;48.744;10.106;2023-05-21T04:28:42;15.90;40.40
1011;DHT22;494;48.744;10.106;2023-05-21T04:31:14;16.00;40.30
1011;DHT22;494;48.744;10.106;2023-05-21T04:33:47;16.00;40.20
1011;DHT22;494;48.744;10.106;2023-05-21T04:36:17;16.00;40.20
1011;DHT22;494;48.744;10.106;2023-05-21T04:38:47;16.00;40.10
1011;DHT22;494;48.744;10.106;2023-05-21T04:41:18;16.10;40.10
1011;DHT22;494;48.744;10.106;2023-05-21T04:43:48;16.10;39.70
1011;DHT22;494;48.744;10.106;2023-05-21T04:46:23;16.10;39.50
1011;DHT22;494;48.744;10.106;2023-05-21T04:48:55;16.10;39.30
1011;DHT22;494;48.744;10.106;2023-05-21T04:51:29;16.20;39.30
1011;DHT22;494;48.744;10.106;2023-05-21T04:53:59;16.20;39.20
1011;DHT22;494;48.744;10.106;2023-05-21T04:56:31;16.30;39.30
1011;DHT22;494;48.744;10.106;2023-05-21T04:59:01;16.40;39.40
1011;DHT22;494;48.744;10.106;2023-05-21T05:01:34;16.30;39.40
1011;DHT22;494;48.744;10.106;2023-05-21T05:04:04;16.30;39.30
1011;DHT22;494;48.744;10.106;2023-05-21T05:06:33;16.40;39.30
1011;DHT22;494;48.744;10.106;2023-05-21T05:09:02;16.40;39.10
1011;DHT22;494;48.744;10.106;2023-05-21T05:11:32;16.50;39.30
1011;DHT22;494;48.744;10.106;2023-05-21T05:14:01;16.60;38.80
1011;DHT22;494;48.744;10.106;2023-05-21T05:16:30;16.70;38.60
1011;DHT22;494;48.744;10.106;2023-05-21T05:19:03;16.70;38.60
1011;DHT22;494;48.744;10.106;2023-05-21T05:21:32;16.80;38.40
1011;DHT22;494;48.744;10.106;2023-05-21T05:24:02;16.90;38.30
1011;DHT22;494;48.744;10.106;2023-05-21T05:26:32;16.90;38.10
1011;DHT22;494;48.744;10.106;2023-05-21T05:29:02;17.00;38.10
1011;DHT22;494;48.744;10.106;2023-05-21T05:31:31;17.10;38.20
1011;DHT22;494;48.744;10.106;2023-05-21T05:34:00;17.20;38.20
1011;DHT22;494;48.744;10.106;2023-05-21T05:36:38;17.30;38.00
1011;DHT22;494;48.744;10.106;2023-05-21T05:39:07;17.40;37.60
1011;DHT22;494;48.744;10.106;2023-05-21T05:41:36;17.40;37.80
1011;DHT22;494;48.744;10.106;2023-05-21T05:44:06;17.50;37.70
1011;DHT22;494;48.744;10.106;2023-05-21T05:46:37;17.50;37.40
1011;DHT22;494;48.744;10.106;2023-05-21T05:49:07;17.50;37.60
1011;DHT22;494;48.744;10.106;2023-05-21T05:51:39;17.70;37.60
1011;DHT22;494;48.744;10.106;2023-05-21T05:54:11;17.70;37.00
1011;DHT22;494;48.744;10.106;2023-05-21T05:56:39;17.80;36.80
1011;DHT22;494;48.744;10.106;2023-05-21T05:59:12;17.80;36.80
1011;DHT22;494;48.744;10.106;2023-05-21T06:01:43;18.00;36.90
1011;DHT22;494;48.744;10.106;2023-05-21T06:04:12;18.10;36.70
1011;DHT22;494;48.744;10.106;2023-05-21T06:06:42;18.30;36.50
1011;DHT22;494;48.744;10.106;2023-05-21T06:09:14;18.40;36.10
1011;DHT22;494;48.744;10.106;2023-05-21T06:11:44;18.60;36.20
1011;DHT22;494;48.744;10.106;2023-05-21T06:14:15;18.70;35.80
1011;DHT22;494;48.744;10.106;2023-05-21T06:16:45;18.80;35.20
1011;DHT22;494;48.744;10.106;2023-05-21T06:19:13;18.90;34.50
1011;DHT22;494;48.744;10.106;2023-05-21T06:21:44;19.10;34.20
1011;DHT22;494;48.744;10.106;2023-05-21T06:24:14;19.20;31.90
1011;DHT22;494;48.744;10.106;2023-05-21T06:27:00;19.40;30.80
1011;DHT22;494;48.744;10.106;2023-05-21T06:29:34;19.60;29.10
1011;DHT22;494;48.744;10.106;2023-05-21T06:32:04;19.50;27.00
1011;DHT22;494;48.744;10.106;2023-05-21T06:34:35;19.50;25.80
1011;DHT22;494;48.744;10.106;2023-05-21T06:37:10;19.70;24.50
1011;DHT22;494;48.744;10.106;2023-05-21T06:39:43;19.80;24.00
1011;DHT22;494;48.744;10.106;2023-05-21T06:42:12;20.00;23.60
1011;DHT22;494;48.744;10.106;2023-05-21T06:44:49;20.00;22.10
1011;DHT22;494;48.744;10.106;2023-05-21T06:47:18;20.10;22.70
1011;DHT22;494;48.744;10.106;2023-05-21T06:49:50;20.30;21.00
1011;DHT22;494;48.744;10.106;2023-05-21T06:52:25;20.40;19.80
1011;DHT22;494;48.744;10.106;2023-05-21T06:55:07;20.40;19.40
1011;DHT22;494;48.744;10.106;2023-05-21T06:57:38;20.40;18.90
1011;DHT22;494;48.744;10.106;2023-05-21T07:00:11;20.30;19.20
1011;DHT22;494;48.744;10.106;2023-05-21T07:02:42;20.40;18.70
1011;DHT22;494;48.744;10.106;2023-05-21T07:05:25;20.40;19.00
1011;DHT22;494;48.744;10.106;2023-05-21T07:07:56;20.70;18.40
1011;DHT22;494;48.744;10.106;2023-05-21T07:10:25;20.70;18.40
1011;DHT22;494;48.744;10.106;2023-05-21T07:12:55;20.90;18.00
1011;DHT22;494;48.744;10.106;2023-05-21T07:15:29;20.90;17.90
1011;DHT22;494;48.744;10.106;2023-05-21T07:18:05;21.00;17.30
1011;DHT22;494;48.744;10.106;2023-05-21T07:20:39;21.20;17.60
1011;DHT22;494;48.744;10.106;2023-05-21T07:23:12;21.20;17.70
1011;DHT22;494;48.744;10.106;2023-05-21T07:25:41;21.40;16.90
1011;DHT22;494;48.744;10.106;2023-05-21T07:28:09;21.50;15.90
1011;DHT22;494;48.744;10.106;2023-05-21T07:30:38;21.60;16.20
1011;DHT22;494;48.744;10.106;2023-05-21T07:33:07;21.90;16.60
1011;DHT22;494;48.744;10.106;2023-05-21T07:35:36;22.00;15.00
1011;DHT22;494;48.744;10.106;2023-05-21T07:38:04;22.10;15.00
1011;DHT22;494;48.744;10.106;2023-05-21T07:40:34;22.30;14.60
1011;DHT22;494;48.744;10.106;2023-05-21T07:43:03;22.50;14.30
1011;DHT22;494;48.744;10.106;2023-05-21T07:45:32;22.60;14.80
1011;DHT22;494;48.744;10.106;2023-05-21T07:48:01;22.60;13.50
1011;DHT22;494;48.744;10.106;2023-05-21T07:50:30;22.60;13.50
1011;DHT22;494;48.744;10.106;2023-05-21T07:52:59;22.70;13.50
1011;DHT22;494;48.744;10.106;2023-05-21T07:55:28;22.90;13.50
1011;DHT22;494;48.744;10.106;2023-05-21T07:57:58;23.00;13.10
1011;DHT22;494;48.744;10.106;2023-05-21T08:00:28;23.10;13.50
1011;DHT22;494;48.744;10.106;2023-05-21T08:03:09;23.10;12.70
1011;DHT22;494;48.744;10.106;2023-05-21T08:05:39;23.00;12.50
1011;DHT22;494;48.744;10.106;2023-05-21T08:08:07;23.00;12.80
1011;DHT22;494;48.744;10.106;2023-05-21T08:10:38;23.00;13.40
1011;DHT22;494;48.744;10.106;2023-05-21T08:13:10;23.20;13.50
1011;DHT22;494;48.744;10.106;2023-05-21T08:15:39;23.50;12.20
1011;DHT22;494;48.744;10.106;2023-05-21T08:18:07;23.60;12.90
1011;DHT22;494;48.744;10.106;2023-05-21T08:20:37;23.80;13.00
1011;DHT22;494;48.744;10.106;2023-05-21T08:23:07;24.00;11.80
1011;DHT22;494;48.744;10.106;2023-05-21T08:25:35;24.10;11.90
1011;DHT22;494;48.744;10.106;2023-05-21T08:28:05;24.20;11.80
1011;DHT22;494;48.744;10.106;2023-05-21T08:30:36;24.40;11.60
1011;DHT22;494;48.744;10.106;2023-05-21T08:33:04;24.60;10.90
1011;DHT22;494;48.744;10.106;2023-05-21T08:35:33;24.80;10.20
1011;DHT22;494;48.744;10.106;2023-05-21T08:38:02;25.00;11.40
1011;DHT22;494;48.744;10.106;2023-05-21T08:40:31;25.10;10.00
1011;DHT22;494;48.744;10.106;2023-05-21T08:43:02;25.20;9.70
1011;DHT22;494;48.744;10.106;2023-05-21T08:45:34;25.30;9.50
1011;DHT22;494;48.744;10.106;2023-05-21T08:48:09;25.40;10.50
1011;DHT22;494;48.744;10.106;2023-05-21T08:50:40;25.40;9.80
1011;DHT22;494;48.744;10.106;2023-05-21T08:53:10;25.40;10.20
1011;DHT22;494;48.744;10.106;2023-05-21T08:55:55;25.40;9.70
1011;DHT22;494;48.744;10.106;2023-05-21T08:58:24;25.30;10.40
1011;DHT22;494;48.744;10.106;2023-05-21T09:00:55;25.30;10.30
1011;DHT22;494;48.744;10.106;2023-05-21T09:03:25;25.50;10.30
1011;DHT22;494;48.744;10.106;2023-05-21T09:06:04;25.50;10.10
1011;DHT22;494;48.744;10.106;2023-05-21T09:08:44;25.50;10.20
1011;DHT22;494;48.744;10.106;2023-05-21T09:11:17;25.60;10.40
1011;DHT22;494;48.744;10.106;2023-05-21T09:13:46;25.60;10.10
1011;DHT22;494;48.744;10.106;2023-05-21T09:16:19;25.50;10.60
1011;DHT22;494;48.744;10.106;2023-05-21T09:18:48;25.60;10.90
1011;DHT22;494;48.744;10.106;2023-05-21T09:21:24;25.80;10.10
1011;DHT22;494;48.744;10.106;2023-05-21T09:23:54;26.00;9.40
1011;DHT22;494;48.744;10.106;2023-05-21T09:26:24;25.80;8.90
1011;DHT22;494;48.744;10.106;2023-05-21T09:28:56;25.70;9.70
1011;DHT22;494;48.744;10.106;2023-05-21T09:31:28;25.60;10.10
1011;DHT22;494;48.744;10.106;2023-05-21T09:33:58;25.70;9.90
1011;DHT22;494;48.744;10.106;2023-05-21T09:36:27;25.80;9.70
1011;DHT22;494;48.744;10.106;2023-05-21T09:38:56;25.80;9.40
1011;DHT22;494;48.744;10.106;2023-05-21T09:41:32;25.90;9.50
1011;DHT22;494;48.744;10.106;2023-05-21T09:44:03;26.00;8.90
1011;DHT22;494;48.744;10.106;2023-05-21T09:46:40;26.00;9.30
1011;DHT22;494;48.744;10.106;2023-05-21T09:49:21;26.10;9.10
1011;DHT22;494;48.744;10.106;2023-05-21T09:51:54;26.10;8.60
1011;DHT22;494;48.744;10.106;2023-05-21T09:54:24;26.30;8.50
1011;DHT22;494;48.744;10.106;2023-05-21T09:56:53;26.50;7.90
1011;DHT22;494;48.744;10.106;2023-05-21T09:59:22;26.60;8.90
1011;DHT22;494;48.744;10.106;2023-05-21T10:01:52;26.80;7.80
1011;DHT22;494;48.744;10.106;2023-05-21T10:04:22;27.00;6.80
1011;DHT22;494;48.744;10.106;2023-05-21T10:06:51;27.00;6.90
1011;DHT22;494;48.744;10.106;2023-05-21T10:09:20;27.00;6.50
1011;DHT22;494;48.744;10.106;2023-05-21T10:11:53;27.10;6.20
1011;DHT22;494;48.744;10.106;2023-05-21T10:14:24;27.20;5.90
1011;DHT22;494;48.744;10.106;2023-05-21T10:16:59;27.00;5.70
1011;DHT22;494;48.744;10.106;2023-05-21T10:19:30;26.90;6.10
1011;DHT22;494;48.744;10.106;2023-05-21T10:22:02;26.80;5.80
1011;DHT22;494;48.744;10.106;2023-05-21T10:24:32;26.60;6.20
1011;DHT22;494;48.744;10.106;2023-05-21T10:27:03;26.60;6.50
1011;DHT22;494;48.744;10.106;2023-05-21T10:29:32;26.50;6.00
1011;DHT22;494;48.744;10.106;2023-05-21T10:32:06;26.40;7.10
1011;DHT22;494;48.744;10.106;2023-05-21T10:34:35;26.30;7.70
1011;DHT22;494;48.744;10.106;2023-05-21T10:37:07;26.40;7.50
1011;DHT22;494;48.744;10.106;2023-05-21T10:39:38;26.50;7.00
1011;DHT22;494;48.744;10.106;2023-05-21T10:42:17;26.70;7.00
1011;DHT22;494;48.744;10.106;2023-05-21T10:45:02;26.90;7.10
1011;DHT22;494;48.744;10.106;2023-05-21T10:48:04;27.10;8.20
1011;DHT22;494;48.744;10.106;2023-05-21T10:51:14;27.50;7.30
1011;DHT22;494;48.744;10.106;2023-05-21T10:54:03;28.00;6.80
1011;DHT22;494;48.744;10.106;2023-05-21T10:56:54;28.30;6.70
1011;DHT22;494;48.744;10.106;2023-05-21T10:59:38;28.50;5.00
1011;DHT22;494;48.744;10.106;2023-05-21T11:02:11;28.60;4.90
1011;DHT22;494;48.744;10.106;2023-05-21T11:04:45;28.90;5.60
1011;DHT22;494;48.744;10.106;2023-05-21T11:07:22;29.30;5.40
1011;DHT22;494;48.744;10.106;2023-05-21T11:09:51;29.60;4.80
1011;DHT22;494;48.744;10.106;2023-05-21T11:12:21;29.80;3.80
1011;DHT22;494;48.744;10.106;2023-05-21T11:14:55;30.10;4.70
1011;DHT22;494;48.744;10.106;2023-05-21T11:17:36;30.30;4.30
1011;DHT22;494;48.744;10.106;2023-05-21T11:20:10;30.60;3.50
1011;DHT22;494;48.744;10.106;2023-05-21T11:22:40;30.90;3.90
1011;DHT22;494;48.744;10.106;2023-05-21T11:25:09;31.10;4.20
1011;DHT22;494;48.744;10.106;2023-05-21T11:27:40;31.30;3.30
1011;DHT22;494;48.744;10.106;2023-05-21T11:30:15;31.50;3.40
1011;DHT22;494;48.744;10.106;2023-05-21T11:33:16;31.80;2.40
1011;DHT22;494;48.744;10.106;2023-05-21T11:35:56;31.90;1.20
1011;DHT22;494;48.744;10.106;2023-05-21T11:38:27;32.00;1.30
1011;DHT22;494;48.744;10.106;2023-05-21T11:41:00;32.20;1.00
1011;DHT22;494;48.744;10.106;2023-05-21T11:43:30;32.40;1.00
1011;DHT22;494;48.744;10.106;2023-05-21T11:45:59;32.30;1.00
1011;DHT22;494;48.744;10.106;2023-05-21T11:48:30;32.10;1.00
1011;DHT22;494;48.744;10.106;2023-05-21T11:51:01;31.90;1.00
1011;DHT22;494;48.744;10.106;2023-05-21T11:53:30;31.70;1.00
1011;DHT22;494;48.744;10.106;2023-05-21T11:56:01;31.40;1.30
1011;DHT22;494;48.744;10.106;2023-05-21T11:58:30;31.30;1.00
1011;DHT22;494;48.744;10.106;2023-05-21T12:00:59;31.20;1.50
1011;DHT22;494;48.744;10.106;2023-05-21T12:03:28;31.40;1.00
1011;DHT22;494;48.744;10.106;2023-05-21T12:06:05;31.30;1.00
1011;DHT22;494;48.744;10.106;2023-05-21T12:08:35;31.30;1.00
1011;DHT22;494;48.744;10.106;2023-05-21T12:11:04;31.30;1.00
1011;DHT22;494;48.744;10.106;2023-05-21T12:13:33;31.40;1.00
1011;DHT22;494;48.744;10.106;2023-05-21T12:16:02;31.50;1.00
1011;DHT22;494;48.744;10.106;2023-05-21T12:18:32;31.60;1.40
1011;DHT22;494;48.744;10.106;2023-05-21T12:21:05;31.80;1.00
1011;DHT22;494;48.744;10.106;2023-05-21T12:23:36;32.10;1.10
1011;DHT22;494;48.744;10.106;2023-05-21T12:26:04;32.50;1.00
1011;DHT22;494;48.744;10.106;2023-05-21T12:28:34;32.80;1.00
1011;DHT22;494;48.744;10.106;2023-05-21T12:31:03;33.20;1.00
1011;DHT22;494;48.744;10.106;2023-05-21T12:33:33;33.30;1.00
1011;DHT22;494;48.744;10.106;2023-05-21T12:36:03;33.30;1.00
1011;DHT22;494;48.744;10.106;2023-05-21T12:38:33;33.00;1.00
1011;DHT22;494;48.744;10.106;2023-05-21T12:41:03;32.80;1.00
1011;DHT22;494;48.744;10.106;2023-05-21T12:43:32;32.80;1.00
1011;DHT22;494;48.744;10.106;2023-05-21T12:46:02;32.80;1.00
1011;DHT22;494;48.744;10.106;2023-05-21T12:48:31;32.80;1.00
1011;DHT22;494;48.744;10.106;2023-05-21T12:50:59;33.10;1.00
1011;DHT22;494;48.744;10.106;2023-05-21T12:53:37;32.90;1.00
1011;DHT22;494;48.744;10.106;2023-05-21T12:56:09;32.90;1.00
1011;DHT22;494;48.744;10.106;2023-05-21T12:58:39;32.50;1.00
1011;DHT22;494;48.744;10.106;2023-05-21T13:01:09;32.30;1.00
1011;DHT22;494;48.744;10.106;2023-05-21T13:03:40;32.10;1.00
1011;DHT22;494;48.744;10.106;2023-05-21T13:06:10;32.00;1.00
1011;DHT22;494;48.744;10.106;2023-05-21T13:08:40;31.90;1.00
1011;DHT22;494;48.744;10.106;2023-05-21T13:11:09;31.80;1.00
1011;DHT22;494;48.744;10.106;2023-05-21T13:13:38;31.70;1.00
1011;DHT22;494;48.744;10.106;2023-05-21T13:16:07;31.70;1.00
1011;DHT22;494;48.744;10.106;2023-05-21T13:18:35;32.00;1.00
1011;DHT22;494;48.744;10.106;2023-05-21T13:21:04;32.20;1.00
1011;DHT22;494;48.744;10.106;2023-05-21T13:23:33;32.60;1.00
1011;DHT22;494;48.744;10.106;2023-05-21T13:26:03;33.10;1.00
1011;DHT22;494;48.744;10.106;2023-05-21T13:33:26;34.00;1.00
1011;DHT22;494;48.744;10.106;2023-05-21T13:36:39;34.80;1.00
1011;DHT22;494;48.744;10.106;2023-05-21T13:39:13;34.90;1.00
1011;DHT22;494;48.744;10.106;2023-05-21T14:13:16;31.70;1.00
1011;DHT22;494;48.744;10.106;2023-05-21T14:24:15;31.90;1.00
1011;DHT22;494;48.744;10.106;2023-05-21T14:28:07;32.70;1.00
1011;DHT22;494;48.744;10.106;2023-05-21T14:30:41;33.30;1.00
1011;DHT22;494;48.744;10.106;2023-05-21T14:33:11;33.70;1.00
1011;DHT22;494;48.744;10.106;2023-05-21T14:35:40;33.90;1.00
1011;DHT22;494;48.744;10.106;2023-05-21T14:38:10;34.20;1.00
1011;DHT22;494;48.744;10.106;2023-05-21T14:40:40;34.30;1.00
1011;DHT22;494;48.744;10.106;2023-05-21T14:43:12;34.30;1.00
1011;DHT22;494;48.744;10.106;2023-05-21T14:45:41;34.30;1.00
1011;DHT22;494;48.744;10.106;2023-05-21T14:48:11;34.50;1.00
1011;DHT22;494;48.744;10.106;2023-05-21T14:50:40;34.40;1.00
1011;DHT22;494;48.744;10.106;2023-05-21T14:53:11;34.30;1.00
1011;DHT22;494;48.744;10.106;2023-05-21T14:55:40;34.50;1.00
1011;DHT22;494;48.744;10.106;2023-05-21T14:58:38;34.50;1.00
1011;DHT22;494;48.744;10.106;2023-05-21T15:01:11;34.30;1.00
1011;DHT22;494;48.744;10.106;2023-05-21T15:03:42;34.40;1.00
1011;DHT22;494;48.744;10.106;2023-05-21T15:06:15;34.50;1.00
1011;DHT22;494;48.744;10.106;2023-05-21T15:08:49;34.50;1.00
1011;DHT22;494;48.744;10.106;2023-05-21T15:11:18;34.50;1.00
1011;DHT22;494;48.744;10.106;2023-05-21T15:13:49;34.40;1.00
1011;DHT22;494;48.744;10.106;2023-05-21T15:16:20;34.40;1.00
1011;DHT22;494;48.744;10.106;2023-05-21T15:18:49;34.40;1.00
1011;DHT22;494;48.744;10.106;2023-05-21T15:21:19;34.60;1.00
1011;DHT22;494;48.744;10.106;2023-05-21T15:23:47;34.60;1.00
1011;DHT22;494;48.744;10.106;2023-05-21T15:26:16;34.50;1.00
1011;DHT22;494;48.744;10.106;2023-05-21T15:28:52;34.40;1.00
1011;DHT22;494;48.744;10.106;2023-05-21T15:31:21;34.10;1.00
1011;DHT22;494;48.744;10.106;2023-05-21T15:33:50;33.90;1.00
1011;DHT22;494;48.744;10.106;2023-05-21T15:36:19;33.60;1.00
1011;DHT22;494;48.744;10.106;2023-05-21T15:38:49;33.30;1.00
1011;DHT22;494;48.744;10.106;2023-05-21T15:41:19;33.20;1.00
1011;DHT22;494;48.744;10.106;2023-05-21T15:43:51;33.20;1.00
1011;DHT22;494;48.744;10.106;2023-05-21T15:46:19;33.20;1.00
1011;DHT22;494;48.744;10.106;2023-05-21T15:48:48;32.80;1.00
1011;DHT22;494;48.744;10.106;2023-05-21T15:51:17;32.70;1.00
1011;DHT22;494;48.744;10.106;2023-05-21T15:53:47;32.40;1.00
1011;DHT22;494;48.744;10.106;2023-05-21T15:56:16;32.40;1.00
1011;DHT22;494;48.744;10.106;2023-05-21T15:58:45;32.60;1.00
1011;DHT22;494;48.744;10.106;2023-05-21T16:01:16;32.80;1.00
1011;DHT22;494;48.744;10.106;2023-05-21T16:03:46;32.80;1.00
1011;DHT22;494;48.744;10.106;2023-05-21T16:06:15;32.70;1.00
1011;DHT22;494;48.744;10.106;2023-05-21T16:08:44;32.60;1.00
1011;DHT22;494;48.744;10.106;2023-05-21T16:11:16;32.40;1.00
1011;DHT22;494;48.744;10.106;2023-05-21T16:13:45;32.20;1.00
1011;DHT22;494;48.744;10.106;2023-05-21T16:16:16;32.20;1.00
1011;DHT22;494;48.744;10.106;2023-05-21T16:18:45;32.20;1.00
1011;DHT22;494;48.744;10.106;2023-05-21T16:21:14;32.20;1.00
1011;DHT22;494;48.744;10.106;2023-05-21T16:23:42;32.10;1.00
1011;DHT22;494;48.744;10.106;2023-05-21T16:26:12;32.00;1.00
1011;DHT22;494;48.744;10.106;2023-05-21T16:28:42;32.00;1.00
1011;DHT22;494;48.744;10.106;2023-05-21T16:31:11;31.90;1.00
1011;DHT22;494;48.744;10.106;2023-05-21T16:33:41;31.50;1.00
1011;DHT22;494;48.744;10.106;2023-05-21T16:36:10;31.20;1.00
1011;DHT22;494;48.744;10.106;2023-05-21T16:38:39;30.80;1.00
1011;DHT22;494;48.744;10.106;2023-05-21T16:41:09;30.70;1.00
1011;DHT22;494;48.744;10.106;2023-05-21T16:43:38;30.40;1.00
1011;DHT22;494;48.744;10.106;2023-05-21T16:46:06;30.20;1.00
1011;DHT22;494;48.744;10.106;2023-05-21T16:48:35;30.00;1.00
1011;DHT22;494;48.744;10.106;2023-05-21T16:51:06;30.10;1.00
1011;DHT22;494;48.744;10.106;2023-05-21T16:53:35;30.00;1.00
1011;DHT22;494;48.744;10.106;2023-05-21T16:56:04;30.10;1.00
1011;DHT22;494;48.744;10.106;2023-05-21T16:58:33;30.20;1.00
1011;DHT22;494;48.744;10.106;2023-05-21T17:01:02;30.20;1.00
1011;DHT22;494;48.744;10.106;2023-05-21T17:03:31;30.10;1.00
1011;DHT22;494;48.744;10.106;2023-05-21T17:06:00;30.00;1.00
1011;DHT22;494;48.744;10.106;2023-05-21T17:08:30;29.80;1.00
1011;DHT22;494;48.744;10.106;2023-05-21T17:10:58;29.70;1.00
1011;DHT22;494;48.744;10.106;2023-05-21T17:13:27;29.60;1.00
1011;DHT22;494;48.744;10.106;2023-05-21T17:15:56;29.60;1.00
1011;DHT22;494;48.744;10.106;2023-05-21T17:18:24;29.60;1.00
1011;DHT22;494;48.744;10.106;2023-05-21T17:20:53;29.50;1.00
1011;DHT22;494;48.744;10.106;2023-05-21T17:23:22;29.30;1.00